createdAt,value
2019-04-06T00:00:25.853Z,22.1
2019-04-06T00:01:38.060Z,23.8
2019-04-06T00:02:50.636Z,23
2019-04-06T00:04:02.436Z,25
2019-04-06T00:05:14.632Z,22.5
2019-04-06T00:06:26.822Z,24.9
2019-04-06T00:10:07.828Z,21.8
2019-04-06T00:11:20.188Z,22.5
2019-04-06T00:12:27.814Z,25.1
2019-04-06T00:13:40.055Z,21.9
2019-04-06T00:14:52.408Z,23.3
2019-04-06T00:16:04.404Z,23.1
2019-04-06T00:17:16.570Z,22
2019-04-06T00:18:28.867Z,23.4
2019-04-06T00:19:40.962Z,22.2
2019-04-06T00:20:53.587Z,24.1
2019-04-06T00:22:05.416Z,21.8
2019-04-06T00:23:17.547Z,22.9
2019-04-06T00:24:29.758Z,24.6
2019-04-06T00:25:42.037Z,22.5
2019-04-06T00:26:54.293Z,22.4
2019-04-06T00:28:06.445Z,22.1
2019-04-06T00:29:18.619Z,20.2
2019-04-06T00:30:30.713Z,22.1
2019-04-06T00:31:43.099Z,20.1
2019-04-06T00:32:55.088Z,31.7
2019-04-06T00:34:07.345Z,22.1
2019-04-06T00:35:19.528Z,22.6
2019-04-06T00:36:31.738Z,21.5
2019-04-06T00:37:44.022Z,21.8
2019-04-06T00:38:56.148Z,22.1
2019-04-06T00:40:08.257Z,21.4
2019-04-06T00:41:20.480Z,20
2019-04-06T00:42:33.687Z,25
2019-04-06T00:43:44.879Z,21.4
2019-04-06T00:46:09.480Z,22.3
2019-04-06T00:47:21.577Z,21.3
2019-04-06T00:48:33.619Z,24
2019-04-06T00:49:45.814Z,21
2019-04-06T00:50:58.008Z,27
2019-04-06T00:52:10.237Z,20.7
2019-04-06T00:53:33.177Z,22.1
2019-04-06T00:54:34.665Z,21.4
2019-04-06T00:55:46.770Z,22.6
2019-04-06T00:57:00.879Z,24.2
2019-04-06T00:58:11.286Z,21.7
2019-04-06T00:59:23.362Z,23.1
2019-04-06T01:01:47.751Z,21.8
2019-04-06T01:02:59.938Z,24.1
2019-04-06T01:04:12.363Z,22.2
2019-04-06T01:05:24.319Z,22.6
2019-04-06T01:06:36.587Z,23.4
2019-04-06T01:07:48.722Z,22.8
2019-04-06T01:10:13.106Z,23.7
2019-04-06T01:11:25.301Z,23.3
2019-04-06T01:12:37.501Z,21.9
2019-04-06T01:13:49.678Z,23.5
2019-04-06T01:15:01.968Z,21.9
2019-04-06T01:16:14.178Z,21.5
2019-04-06T01:17:26.352Z,22.1
2019-04-06T01:18:38.559Z,21.3
2019-04-06T01:19:50.654Z,21.5
2019-04-06T01:22:15.206Z,21.5
2019-04-06T01:23:27.234Z,21
2019-04-06T01:24:39.474Z,21.7
2019-04-06T01:25:51.655Z,21.2
2019-04-06T01:27:03.930Z,21.7
2019-04-06T01:28:16.003Z,21.6
2019-04-06T01:29:28.282Z,22.7
2019-04-06T01:30:40.476Z,20.7
2019-04-06T01:31:52.691Z,21.6
2019-04-06T01:33:04.860Z,20.8
2019-04-06T01:34:17.076Z,21
2019-04-06T01:35:29.169Z,21.9
2019-04-06T01:37:53.579Z,22.4
2019-04-06T01:39:05.780Z,21.4
2019-04-06T01:40:18.659Z,22.2
2019-04-06T01:41:30.137Z,23.8
2019-04-06T01:42:42.344Z,21.6
2019-04-06T01:43:54.530Z,20.6
2019-04-06T01:46:18.906Z,20.9
2019-04-06T01:47:31.171Z,22.8
2019-04-06T01:48:43.410Z,22.5
2019-04-06T01:49:55.510Z,22.5
2019-04-06T01:51:07.830Z,24.8
2019-04-06T01:52:19.879Z,23
2019-04-06T01:53:32.135Z,22.7
2019-04-06T01:54:44.294Z,23.3
2019-04-06T01:55:56.534Z,18.6
2019-04-06T01:57:08.677Z,22.7
2019-04-06T01:58:20.976Z,22.4
2019-04-06T01:59:33.056Z,21.6
2019-04-06T02:00:45.281Z,21.4
2019-04-06T02:01:57.465Z,21.9
2019-04-06T02:03:09.624Z,22.5
2019-04-06T02:04:21.822Z,21.4
2019-04-06T02:05:34.060Z,21.3
2019-04-06T02:06:46.262Z,21.8
2019-04-06T02:07:58.411Z,22.7
2019-04-06T02:09:10.625Z,22
2019-04-06T02:10:22.879Z,21.4
2019-04-06T02:11:35.009Z,22.4
2019-04-06T02:12:47.181Z,22.7
2019-04-06T02:13:59.490Z,24
2019-04-06T02:15:11.660Z,23.3
2019-04-06T02:16:23.806Z,23.5
2019-04-06T02:17:36.027Z,22.9
2019-04-06T02:18:48.231Z,22.8
2019-04-06T02:20:00.440Z,23.8
2019-04-06T02:22:24.823Z,24.5
2019-04-06T02:23:36.920Z,22.3
2019-04-06T02:24:49.110Z,23.5
2019-04-06T02:26:01.316Z,24.1
2019-04-06T02:27:13.598Z,22.3
2019-04-06T02:28:25.695Z,23.9
2019-04-06T02:29:37.898Z,22.7
2019-04-06T02:30:50.093Z,21.5
2019-04-06T02:32:02.326Z,22.8
2019-04-06T02:34:26.668Z,22.7
2019-04-06T02:35:38.847Z,21.8
2019-04-06T02:36:51.155Z,23.6
2019-04-06T02:38:03.270Z,25.6
2019-04-06T02:39:15.516Z,27
2019-04-06T02:40:27.623Z,22.1
2019-04-06T02:42:52.035Z,22.2
2019-04-06T02:44:04.239Z,23
2019-04-06T02:46:33.927Z,24.6
2019-04-06T02:47:40.853Z,28.1
2019-04-06T02:48:53.000Z,23.3
2019-04-06T02:50:05.338Z,24.2
2019-04-06T02:51:17.382Z,22.9
2019-04-06T02:52:29.623Z,24.8
2019-04-06T02:53:41.866Z,24
2019-04-06T02:54:53.949Z,22.8
2019-04-06T02:56:06.154Z,24
2019-04-06T02:57:18.341Z,20.4
2019-04-06T02:58:30.552Z,24.4
2019-04-06T02:59:42.743Z,24.1
2019-04-06T03:00:54.948Z,21.7
2019-04-06T03:02:07.137Z,24.8
2019-04-06T03:03:19.307Z,25.8
2019-04-06T03:04:31.508Z,21.9
2019-04-06T03:05:43.711Z,23.8
2019-04-06T03:06:55.897Z,23.4
2019-04-06T03:08:08.105Z,25.7
2019-04-06T03:09:20.347Z,21.8
2019-04-06T03:10:32.483Z,24.9
2019-04-06T03:11:44.717Z,23
2019-04-06T03:12:56.888Z,24.5
2019-04-06T03:14:09.102Z,23.1
2019-04-06T03:15:21.262Z,23.6
2019-04-06T03:16:33.454Z,26.2
2019-04-06T03:17:45.708Z,23.5
2019-04-06T03:18:57.859Z,23.9
2019-04-06T03:20:10.065Z,22.4
2019-04-06T03:22:34.409Z,23.1
2019-04-06T03:23:46.668Z,20.8
2019-04-06T03:24:58.798Z,25
2019-04-06T03:26:11.087Z,24.8
2019-04-06T03:27:23.190Z,24
2019-04-06T03:28:35.508Z,24.7
2019-04-06T03:29:47.585Z,21.4
2019-04-06T03:30:59.886Z,24.1
2019-04-06T03:32:11.968Z,25.4
2019-04-06T03:34:36.407Z,23.4
2019-04-06T03:35:48.555Z,24.7
2019-04-06T03:38:12.956Z,25.3
2019-04-06T03:40:37.332Z,23.4
2019-04-06T03:41:49.516Z,25.7
2019-04-06T03:43:01.930Z,24.2
2019-04-06T03:44:13.955Z,25.2
2019-04-06T03:47:50.500Z,26.8
2019-04-06T03:49:02.772Z,25.5
2019-04-06T03:50:14.917Z,27.4
2019-04-06T03:51:27.075Z,25.8
2019-04-06T03:52:39.362Z,28.4
2019-04-06T03:53:51.564Z,26.2
2019-04-06T03:55:03.707Z,25.3
2019-04-06T03:56:15.869Z,28.1
2019-04-06T03:58:40.275Z,24.8
2019-04-06T03:59:52.429Z,26.6
2019-04-06T04:01:04.604Z,25.5
2019-04-06T04:02:16.807Z,25.8
2019-04-06T04:03:29.006Z,27.1
2019-04-06T04:04:41.273Z,28.5
2019-04-06T04:05:53.386Z,27.8
2019-04-06T04:07:05.645Z,26.4
2019-04-06T04:08:17.815Z,30
2019-04-06T04:10:42.183Z,28.5
2019-04-06T04:11:54.429Z,27.1
2019-04-06T04:13:06.620Z,27.1
2019-04-06T04:14:18.800Z,27
2019-04-06T04:15:30.951Z,28.4
2019-04-06T04:16:43.146Z,28.5
2019-04-06T04:17:55.427Z,30
2019-04-06T04:19:07.553Z,29.5
2019-04-06T04:20:19.786Z,27.9
2019-04-06T04:22:44.094Z,31
2019-04-06T04:23:56.336Z,26.5
2019-04-06T04:25:08.478Z,29.6
2019-04-06T04:26:20.695Z,30.6
2019-04-06T04:27:32.874Z,29.4
2019-04-06T04:28:45.062Z,30.9
2019-04-06T04:29:57.416Z,27
2019-04-06T04:31:09.481Z,31.1
2019-04-06T04:32:21.687Z,29.4
2019-04-06T04:34:48.863Z,29.3
2019-04-06T04:35:58.228Z,28.4
2019-04-06T04:38:22.639Z,30.1
2019-04-06T04:39:34.918Z,29.1
2019-04-06T04:40:47.014Z,28.4
2019-04-06T04:41:59.259Z,30.5
2019-04-06T04:43:11.387Z,33.1
2019-04-06T04:44:23.688Z,31.8
2019-04-06T04:45:35.806Z,31
2019-04-06T04:46:48.012Z,34
2019-04-06T04:48:00.175Z,31.4
2019-04-06T04:49:12.653Z,33.2
2019-04-06T04:50:24.712Z,29.1
2019-04-06T04:51:36.788Z,31.3
2019-04-06T04:52:48.959Z,30.1
2019-04-06T04:54:01.150Z,30
2019-04-06T04:55:13.395Z,30.2
2019-04-06T04:56:25.528Z,30.7
2019-04-06T04:58:49.917Z,32.6
2019-04-06T05:00:02.154Z,31.6
2019-04-06T05:01:14.294Z,30.6
2019-04-06T05:02:26.613Z,35.4
2019-04-06T05:03:38.730Z,31.2
2019-04-06T05:04:50.881Z,32.6
2019-04-06T05:06:03.261Z,31.4
2019-04-06T05:07:15.347Z,32.7
2019-04-06T05:08:27.469Z,32.8
2019-04-06T05:09:39.655Z,32.3
2019-04-06T05:10:51.856Z,31.4
2019-04-06T05:12:04.035Z,32.2
2019-04-06T05:13:16.283Z,30.6
2019-04-06T05:14:28.437Z,31.9
2019-04-06T05:16:52.900Z,31.6
2019-04-06T05:18:05.033Z,28.9
2019-04-06T05:19:17.202Z,32.4
2019-04-06T05:21:41.602Z,34
2019-04-06T05:22:53.813Z,31.6
2019-04-06T05:24:06.118Z,33.4
2019-04-06T05:25:18.225Z,34.8
2019-04-06T05:26:30.436Z,30.6
2019-04-06T05:27:42.659Z,34.3
2019-04-06T05:28:54.770Z,32.6
2019-04-06T05:30:07.088Z,34
2019-04-06T05:31:19.293Z,31.4
2019-04-06T05:32:33.860Z,31.9
2019-04-06T05:34:55.745Z,33.5
2019-04-06T05:36:07.931Z,32.2
2019-04-06T05:37:20.202Z,31.3
2019-04-06T05:38:32.342Z,32.2
2019-04-06T05:39:44.525Z,33.3
2019-04-06T05:40:56.723Z,32.3
2019-04-06T05:42:08.923Z,32.9
2019-04-06T05:43:21.193Z,33.3
2019-04-06T05:44:33.325Z,34.6
2019-04-06T05:47:00.846Z,32.3
2019-04-06T05:48:10.105Z,33.2
2019-04-06T05:49:22.096Z,32.1
2019-04-06T05:50:34.283Z,33.8
2019-04-06T05:51:46.483Z,32.6
2019-04-06T05:52:58.672Z,31.7
2019-04-06T05:54:10.897Z,34.2
2019-04-06T05:55:23.102Z,33
2019-04-06T05:56:35.720Z,33.2
2019-04-06T05:58:59.737Z,31.4
2019-04-06T06:00:11.858Z,35
2019-04-06T06:01:24.043Z,33.4
2019-04-06T06:02:36.287Z,36
2019-04-06T06:03:48.431Z,35.7
2019-04-06T06:05:00.685Z,34.7
2019-04-06T06:06:12.836Z,37.5
2019-04-06T06:07:25.021Z,32.3
2019-04-06T06:08:37.642Z,34.7
2019-04-06T06:12:13.800Z,37.5
2019-04-06T06:13:26.038Z,34.3
2019-04-06T06:14:38.237Z,36.6
2019-04-06T06:15:50.585Z,36.2
2019-04-06T06:17:02.608Z,34.9
2019-04-06T06:18:14.789Z,33.1
2019-04-06T06:19:26.986Z,32.3
2019-04-06T06:20:39.167Z,36.2
2019-04-06T06:23:03.561Z,37.9
2019-04-06T06:24:15.742Z,34.6
2019-04-06T06:25:27.960Z,33.7
2019-04-06T06:26:40.315Z,35.5
2019-04-06T06:27:52.334Z,31.3
2019-04-06T06:29:04.523Z,31.7
2019-04-06T06:30:16.731Z,31
2019-04-06T06:31:28.919Z,34.6
2019-04-06T06:32:41.354Z,31.3
2019-04-06T06:33:53.333Z,36.8
2019-04-06T06:36:17.783Z,36.1
2019-04-06T06:37:29.898Z,34.4
2019-04-06T06:38:42.098Z,32.8
2019-04-06T06:41:06.606Z,33.9
2019-04-06T06:42:18.671Z,33.5
2019-04-06T06:43:30.875Z,34.6
2019-04-06T06:47:07.469Z,31.3
2019-04-06T06:48:19.647Z,33.7
2019-04-06T06:49:31.926Z,36.5
2019-04-06T06:50:44.048Z,35.5
2019-04-06T06:51:56.393Z,34.3
2019-04-06T06:53:08.432Z,33.6
2019-04-06T06:54:20.638Z,34.6
2019-04-06T06:55:32.934Z,34.4
2019-04-06T06:56:45.018Z,31.4
2019-04-06T06:59:09.418Z,35.1
2019-04-06T07:00:23.189Z,37.5
2019-04-06T07:01:36.283Z,35.5
2019-04-06T07:02:46.077Z,35
2019-04-06T07:03:58.190Z,32.9
2019-04-06T07:05:10.471Z,34.2
2019-04-06T07:06:22.580Z,35.4
2019-04-06T07:07:34.796Z,35.1
2019-04-06T07:08:46.973Z,36.4
2019-04-06T07:11:11.408Z,34.8
2019-04-06T07:12:23.553Z,36.6
2019-04-06T07:13:35.826Z,38.8
2019-04-06T07:14:48.560Z,35.7
2019-04-06T07:16:04.285Z,38
2019-04-06T07:17:12.371Z,33.9
2019-04-06T07:18:24.528Z,35.7
2019-04-06T07:19:36.734Z,37
2019-04-06T07:23:13.319Z,35.6
2019-04-06T07:24:25.510Z,35.2
2019-04-06T07:25:37.701Z,34.2
2019-04-06T07:26:50.006Z,33.8
2019-04-06T07:28:02.118Z,36
2019-04-06T07:29:14.384Z,34.6
2019-04-06T07:30:26.535Z,34.6
2019-04-06T07:31:38.739Z,37.8
2019-04-06T07:32:50.899Z,37.8
2019-04-06T07:34:03.082Z,37.6
2019-04-06T07:35:15.319Z,34.2
2019-04-06T07:36:27.482Z,34.3
2019-04-06T07:37:39.688Z,35.4
2019-04-06T07:38:51.951Z,35.1
2019-04-06T07:40:04.039Z,34.8
2019-04-06T07:41:16.235Z,36.6
2019-04-06T07:42:28.438Z,36.1
2019-04-06T07:43:40.660Z,34.9
2019-04-06T07:44:52.834Z,36.3
2019-04-06T07:46:05.084Z,35.4
2019-04-06T07:47:17.226Z,36.8
2019-04-06T07:48:29.426Z,36.1
2019-04-06T07:49:41.645Z,36.5
2019-04-06T07:50:53.841Z,35.6
2019-04-06T07:52:06.236Z,32.8
2019-04-06T07:53:18.195Z,35.6
2019-04-06T07:54:30.377Z,36.5
2019-04-06T07:55:42.627Z,38.4
2019-04-06T07:56:54.778Z,35.1
2019-04-06T07:59:19.176Z,34.9
2019-04-06T08:00:31.366Z,36.7
2019-04-06T08:01:43.630Z,34.9
2019-04-06T08:02:55.746Z,35.3
2019-04-06T08:04:08.345Z,34.5
2019-04-06T08:05:20.217Z,35.5
2019-04-06T08:06:32.473Z,34.6
2019-04-06T08:07:44.531Z,36.2
2019-04-06T08:08:56.806Z,35
2019-04-06T08:10:08.962Z,35.4
2019-04-06T08:11:21.311Z,37.3
2019-04-06T08:12:33.345Z,36.3
2019-04-06T08:13:45.516Z,36.8
2019-04-06T08:14:57.702Z,35
2019-04-06T08:16:09.900Z,35.2
2019-04-06T08:17:22.309Z,32.9
2019-04-06T08:18:34.288Z,33.7
2019-04-06T08:19:46.557Z,33.4
2019-04-06T08:20:58.886Z,33.3
2019-04-06T08:23:23.172Z,35.6
2019-04-06T08:24:35.332Z,38.1
2019-04-06T08:26:59.867Z,34.1
2019-04-06T08:28:11.907Z,32.5
2019-04-06T08:29:24.133Z,35
2019-04-06T08:30:36.400Z,36.1
2019-04-06T08:31:48.442Z,36.4
2019-04-06T08:33:02.059Z,32.4
2019-04-06T08:35:25.062Z,31.3
2019-04-06T08:36:37.227Z,33
2019-04-06T08:37:49.498Z,32
2019-04-06T08:39:01.779Z,30.9
2019-04-06T08:40:13.814Z,33.1
2019-04-06T08:41:26.010Z,32.7
2019-04-06T08:42:38.208Z,31.8
2019-04-06T08:43:50.478Z,30.4
2019-04-06T08:45:02.606Z,31.6
2019-04-06T08:46:14.784Z,29.2
2019-04-06T08:47:26.972Z,32.6
2019-04-06T08:48:39.168Z,31.7
2019-04-06T08:49:51.532Z,30.1
2019-04-06T08:51:03.567Z,33.3
2019-04-06T08:52:15.745Z,31
2019-04-06T08:53:28.243Z,30.1
2019-04-06T08:54:40.208Z,32.4
2019-04-06T08:55:52.346Z,31
2019-04-06T08:57:04.535Z,29.7
2019-04-06T08:59:28.931Z,32.7
2019-04-06T09:00:41.215Z,27.6
2019-04-06T09:01:53.491Z,29.8
2019-04-06T09:03:05.625Z,29.2
2019-04-06T09:04:17.730Z,28.9
2019-04-06T09:05:30.017Z,30.5
2019-04-06T09:06:42.231Z,30.2
2019-04-06T09:07:54.318Z,28
2019-04-06T09:09:06.559Z,28.1
2019-04-06T09:11:30.882Z,28.1
2019-04-06T09:12:43.081Z,27.9
2019-04-06T09:13:55.324Z,28.2
2019-04-06T09:15:07.489Z,26.8
2019-04-06T09:16:19.758Z,27.1
2019-04-06T09:17:31.846Z,28.1
2019-04-06T09:18:44.145Z,28.6
2019-04-06T09:19:56.236Z,27.8
2019-04-06T09:21:08.427Z,26.2
2019-04-06T09:22:20.693Z,28.4
2019-04-06T09:24:45.029Z,29.5
2019-04-06T09:25:57.215Z,29.7
2019-04-06T09:27:09.412Z,28.3
2019-04-06T09:28:21.792Z,31.2
2019-04-06T09:29:33.811Z,30.7
2019-04-06T09:30:46.022Z,28.6
2019-04-06T09:31:58.290Z,28.9
2019-04-06T09:33:10.393Z,31.8
2019-04-06T09:34:22.569Z,28.6
2019-04-06T09:35:34.788Z,27.4
2019-04-06T09:36:47.139Z,28.7
2019-04-06T09:37:59.177Z,30
2019-04-06T09:39:11.401Z,30.8
2019-04-06T09:40:23.554Z,27.5
2019-04-06T09:41:35.805Z,29.2
2019-04-06T09:42:48.020Z,27.8
2019-04-06T09:44:00.141Z,28.4
2019-04-06T09:45:12.361Z,28.2
2019-04-06T09:47:36.778Z,28.2
2019-04-06T09:48:49.004Z,27.6
2019-04-06T09:50:01.145Z,27.9
2019-04-06T09:51:14.265Z,30.1
2019-04-06T09:52:25.526Z,29.3
2019-04-06T09:53:37.721Z,30.3
2019-04-06T09:54:49.947Z,28
2019-04-06T09:56:02.139Z,29
2019-04-06T09:57:14.295Z,27.3
2019-04-06T09:59:38.815Z,29.3
2019-04-06T10:00:52.307Z,30
2019-04-06T10:02:03.095Z,26.1
2019-04-06T10:03:15.309Z,27.8
2019-04-06T10:04:27.496Z,29.4
2019-04-06T10:05:39.695Z,27.8
2019-04-06T10:06:51.892Z,29
2019-04-06T10:08:04.063Z,28.3
2019-04-06T10:09:16.358Z,28.1
2019-04-06T10:11:40.675Z,27.9
2019-04-06T10:12:52.918Z,29
2019-04-06T10:14:05.023Z,28.9
2019-04-06T10:15:17.227Z,28
2019-04-06T10:16:29.416Z,29.6
2019-04-06T10:17:41.746Z,27.4
2019-04-06T10:18:54.304Z,29.9
2019-04-06T10:20:07.157Z,28.4
2019-04-06T10:21:18.208Z,27.1
2019-04-06T10:23:42.730Z,27.1
2019-04-06T10:24:55.330Z,26.5
2019-04-06T10:26:06.981Z,25.2
2019-04-06T10:27:19.256Z,26.4
2019-04-06T10:28:31.408Z,25.3
2019-04-06T10:29:43.600Z,25.5
2019-04-06T10:30:55.961Z,25.2
2019-04-06T10:32:08.361Z,23.3
2019-04-06T10:33:20.288Z,26.8
2019-04-06T10:35:44.602Z,25.1
2019-04-06T10:36:56.769Z,24.8
2019-04-06T10:38:08.941Z,24.5
2019-04-06T10:39:21.125Z,23.1
2019-04-06T10:41:45.534Z,26
2019-04-06T10:42:57.712Z,24.2
2019-04-06T10:44:09.918Z,24.9
2019-04-06T10:45:22.294Z,25.9
2019-04-06T10:47:46.514Z,22.9
2019-04-06T10:48:58.888Z,21.6
2019-04-06T10:50:10.888Z,23.4
2019-04-06T10:51:23.125Z,23.5
2019-04-06T10:52:35.312Z,21.9
2019-04-06T10:53:47.486Z,23.1
2019-04-06T10:54:59.758Z,23.3
2019-04-06T10:56:12.103Z,22.4
2019-04-06T10:57:24.154Z,23.4
2019-04-06T10:58:36.283Z,22.1
2019-04-06T10:59:48.473Z,23.3
2019-04-06T11:01:00.642Z,25
2019-04-06T11:02:12.948Z,22.7
2019-04-06T11:03:25.046Z,24.2
2019-04-06T11:04:37.293Z,23.4
2019-04-06T11:05:49.432Z,22.6
2019-04-06T11:07:04.451Z,23.7
2019-04-06T11:08:18.946Z,25.6
2019-04-06T11:09:26.059Z,22.1
2019-04-06T11:11:50.423Z,21.2
2019-04-06T11:13:02.714Z,23.1
2019-04-06T11:14:14.824Z,22.6
2019-04-06T11:15:26.985Z,22.6
2019-04-06T11:16:39.190Z,21.3
2019-04-06T11:17:51.520Z,23.2
2019-04-06T11:19:03.593Z,22.7
2019-04-06T11:20:15.878Z,22.4
2019-04-06T11:21:27.981Z,21.4
2019-04-06T11:22:40.167Z,22.6
2019-04-06T11:23:52.450Z,21.6
2019-04-06T11:25:04.553Z,20.7
2019-04-06T11:27:28.950Z,21.5
2019-04-06T11:28:41.193Z,20.7
2019-04-06T11:29:53.364Z,21.1
2019-04-06T11:31:05.555Z,20.5
2019-04-06T11:32:17.740Z,22
2019-04-06T11:33:29.935Z,20.1
2019-04-06T11:35:54.310Z,21.2
2019-04-06T11:37:06.672Z,20.6
2019-04-06T11:38:18.700Z,19.8
2019-04-06T11:39:30.983Z,19.7
2019-04-06T11:41:55.295Z,19.1
2019-04-06T11:43:07.537Z,20.6
2019-04-06T11:44:19.676Z,22.1
2019-04-06T11:45:31.880Z,21.9
2019-04-06T11:47:56.263Z,21.7
2019-04-06T11:49:08.485Z,21.7
2019-04-06T11:50:20.675Z,20.9
2019-04-06T11:51:32.876Z,20.7
2019-04-06T11:52:45.124Z,20.7
2019-04-06T11:53:57.251Z,20.1
2019-04-06T11:55:09.473Z,20.5
2019-04-06T11:56:21.707Z,19.2
2019-04-06T11:57:33.870Z,20.4
2019-04-06T11:59:58.251Z,18.3
2019-04-06T12:01:10.626Z,19.5
2019-04-06T12:02:22.609Z,18.3
2019-04-06T12:03:34.814Z,21.6
2019-04-06T12:04:47.011Z,20.1
2019-04-06T12:05:59.291Z,21.5
2019-04-06T12:07:11.390Z,21.5
2019-04-06T12:08:23.667Z,21.1
2019-04-06T12:09:35.801Z,21.9
2019-04-06T12:12:03.975Z,21.5
2019-04-06T12:13:12.518Z,21.7
2019-04-06T12:14:24.651Z,22.6
2019-04-06T12:15:36.756Z,22.4
2019-04-06T12:16:49.008Z,22
2019-04-06T12:18:01.136Z,22.2
2019-04-06T12:19:13.341Z,22.7
2019-04-06T12:20:25.560Z,22.3
2019-04-06T12:21:37.753Z,23.4
2019-04-06T12:22:50.106Z,23.7
2019-04-06T12:24:02.220Z,22.8
2019-04-06T12:25:14.315Z,24
2019-04-06T12:26:26.720Z,24.2
2019-04-06T12:27:38.809Z,22.8
2019-04-06T12:28:50.924Z,26
2019-04-06T12:30:03.134Z,23.2
2019-04-06T12:31:15.534Z,22.5
2019-04-06T12:32:27.605Z,21.5
2019-04-06T12:33:39.685Z,25.2
2019-04-06T12:34:51.869Z,21.7
2019-04-06T12:36:04.078Z,25
2019-04-06T12:37:16.381Z,25.1
2019-04-06T12:38:28.461Z,24.5
2019-04-06T12:39:40.679Z,22.1
2019-04-06T12:40:52.859Z,22.3
2019-04-06T12:42:05.071Z,24.3
2019-04-06T12:43:17.321Z,23.5
2019-04-06T12:44:29.432Z,23.3
2019-04-06T12:45:41.672Z,23.7
2019-04-06T12:48:06.040Z,22.9
2019-04-06T12:49:18.219Z,21.8
2019-04-06T12:50:30.422Z,23.4
2019-04-06T12:52:55.024Z,22.4
2019-04-06T12:54:06.995Z,21.4
2019-04-06T12:55:19.205Z,21.7
2019-04-06T12:56:31.390Z,21.1
2019-04-06T12:57:43.592Z,21.9
2019-04-06T13:00:07.986Z,20.3
2019-04-06T13:01:20.353Z,20.6
2019-04-06T13:02:32.492Z,23.7
2019-04-06T13:03:44.582Z,22.6
2019-04-06T13:04:56.771Z,23.7
2019-04-06T13:06:08.976Z,21
2019-04-06T13:07:21.221Z,21
2019-04-06T13:08:33.340Z,23.6
2019-04-06T13:09:45.526Z,23
2019-04-06T13:12:09.949Z,21.2
2019-04-06T13:13:22.132Z,22.2
2019-04-06T13:14:34.329Z,20.5
2019-04-06T13:15:46.548Z,21.7
2019-04-06T13:16:58.765Z,20.6
2019-04-06T13:18:10.903Z,20.5
2019-04-06T13:19:23.198Z,19.4
2019-04-06T13:20:35.395Z,20.3
2019-04-06T13:24:11.949Z,21.6
2019-04-06T13:25:24.165Z,20.9
2019-04-06T13:26:36.445Z,20.1
2019-04-06T13:27:48.475Z,19.2
2019-04-06T13:29:00.682Z,19.8
2019-04-06T13:30:12.869Z,20.2
2019-04-06T13:31:25.162Z,19.6
2019-04-06T13:32:37.294Z,20.6
2019-04-06T13:33:49.436Z,20.8
2019-04-06T13:37:26.024Z,19.4
2019-04-06T13:38:38.340Z,18.1
2019-04-06T13:39:50.450Z,19.3
2019-04-06T13:41:02.745Z,17.5
2019-04-06T13:42:14.801Z,18.5
2019-04-06T13:43:27.022Z,18.6
2019-04-06T13:44:39.213Z,18.3
2019-04-06T13:45:53.755Z,18.1
2019-04-06T13:48:15.807Z,18.8
2019-04-06T13:49:27.997Z,19.7
2019-04-06T13:50:40.283Z,17.9
2019-04-06T13:51:53.361Z,18.5
2019-04-06T13:53:04.641Z,18.3
2019-04-06T13:54:16.765Z,18.8
2019-04-06T13:55:28.990Z,19.3
2019-04-06T13:56:41.291Z,18.6
2019-04-06T13:57:53.391Z,20.3
2019-04-06T14:00:17.755Z,17.3
2019-04-06T14:01:29.979Z,16.8
2019-04-06T14:02:42.233Z,17.3
2019-04-06T14:03:54.358Z,18.7
2019-04-06T14:05:06.586Z,17.8
2019-04-06T14:06:18.718Z,16.6
2019-04-06T14:08:43.121Z,17.6
2019-04-06T14:09:57.146Z,17.5
2019-04-06T14:12:19.679Z,16.3
2019-04-06T14:13:31.885Z,15.2
2019-04-06T14:15:56.277Z,16.4
2019-04-06T14:17:08.468Z,18.1
2019-04-06T14:18:20.660Z,15.5
2019-04-06T14:19:32.872Z,16.6
2019-04-06T14:20:45.166Z,16
2019-04-06T14:21:57.252Z,16.5
2019-04-06T14:24:21.729Z,14.8
2019-04-06T14:25:33.902Z,15.2
2019-04-06T14:27:58.357Z,15.9
2019-04-06T14:29:10.473Z,13.4
2019-04-06T14:30:22.602Z,14.8
2019-04-06T14:31:34.853Z,15.4
2019-04-06T14:32:47.090Z,15
2019-04-06T14:33:59.213Z,15.6
2019-04-06T14:36:23.686Z,15
2019-04-06T14:37:35.859Z,16
2019-04-06T14:40:00.229Z,14.3
2019-04-06T14:41:12.471Z,15.3
2019-04-06T14:42:24.582Z,14
2019-04-06T14:43:36.768Z,15.5
2019-04-06T14:44:48.957Z,15.1
2019-04-06T14:46:01.152Z,16.1
2019-04-06T14:48:25.608Z,14
2019-04-06T14:49:37.750Z,14.3
2019-04-06T14:50:49.913Z,14.5
2019-04-06T14:52:02.126Z,15.3
2019-04-06T14:53:14.470Z,14.1
2019-04-06T14:54:26.501Z,17.9
2019-04-06T14:55:38.729Z,17.4
2019-04-06T14:56:50.905Z,15.6
2019-04-06T14:58:03.120Z,15.2
2019-04-06T15:00:27.506Z,17.7
2019-04-06T15:01:39.796Z,15.6
2019-04-06T15:02:51.850Z,15.7
2019-04-06T15:04:04.075Z,16.3
2019-04-06T15:05:16.253Z,14.9
2019-04-06T15:06:28.533Z,15.8
2019-04-06T15:07:40.624Z,16.8
2019-04-06T15:08:52.818Z,16.2
2019-04-06T15:10:05.250Z,17.6
2019-04-06T15:12:29.417Z,16.4
2019-04-06T15:13:41.602Z,17.4
2019-04-06T15:14:54.128Z,16.4
2019-04-06T15:16:06.005Z,15.6
2019-04-06T15:17:18.173Z,15.8
2019-04-06T15:18:30.370Z,14.9
2019-04-06T15:19:42.563Z,13.9
2019-04-06T15:20:54.900Z,15
2019-04-06T15:22:06.968Z,15.1
2019-04-06T15:23:19.197Z,14.5
2019-04-06T15:24:31.409Z,13.8
2019-04-06T15:25:43.534Z,15.4
2019-04-06T15:26:55.875Z,13.4
2019-04-06T15:28:07.915Z,12.6
2019-04-06T15:29:20.280Z,13.8
2019-04-06T15:30:32.313Z,14.5
2019-04-06T15:31:44.495Z,13.6
2019-04-06T15:32:56.683Z,13.5
2019-04-06T15:34:08.902Z,13.5
2019-04-06T15:35:22.305Z,14.3
2019-04-06T15:36:33.272Z,14.1
2019-04-06T15:37:45.537Z,15.1
2019-04-06T15:38:57.647Z,13.6
2019-04-06T15:40:09.958Z,14.4
2019-04-06T15:41:22.046Z,14.7
2019-04-06T15:42:34.337Z,14.1
2019-04-06T15:43:46.562Z,16.7
2019-04-06T15:44:58.622Z,16.7
2019-04-06T15:46:10.834Z,15.2
2019-04-06T15:48:36.135Z,15.4
2019-04-06T15:49:47.401Z,16.6
2019-04-06T15:50:59.680Z,14.8
2019-04-06T15:52:11.783Z,15.3
2019-04-06T15:53:24.045Z,14.4
2019-04-06T15:54:36.188Z,15.2
2019-04-06T15:55:48.358Z,15.8
2019-04-06T15:57:00.714Z,16.4
2019-04-06T16:00:37.145Z,16.5
2019-04-06T16:01:49.341Z,15.3
2019-04-06T16:03:01.692Z,17.1
2019-04-06T16:04:13.796Z,15.7
2019-04-06T16:05:26.006Z,15.9
2019-04-06T16:06:38.105Z,16
2019-04-06T16:07:50.397Z,15.5
2019-04-06T16:09:02.512Z,15.4
2019-04-06T16:10:14.692Z,14.9
2019-04-06T16:12:39.103Z,14.1
2019-04-06T16:13:51.407Z,15.1
2019-04-06T16:15:03.453Z,12.9
2019-04-06T16:16:15.746Z,14.7
2019-04-06T16:17:27.863Z,14.8
2019-04-06T16:18:40.050Z,16.4
2019-04-06T16:19:52.747Z,14.6
2019-04-06T16:21:04.457Z,14
2019-04-06T16:22:18.959Z,15
2019-04-06T16:23:28.817Z,14.1
2019-04-06T16:24:41.072Z,14.6
2019-04-06T16:25:53.197Z,13.8
2019-04-06T16:27:05.443Z,14.6
2019-04-06T16:28:17.622Z,13.7
2019-04-06T16:29:29.775Z,12.8
2019-04-06T16:30:41.968Z,13.1
2019-04-06T16:31:54.334Z,12
2019-04-06T16:33:06.436Z,14.2
2019-04-06T16:34:18.620Z,13.6
2019-04-06T16:36:43.015Z,14.5
2019-04-06T16:37:55.216Z,13.9
2019-04-06T16:39:07.337Z,13.7
2019-04-06T16:40:19.585Z,12.9
2019-04-06T16:41:31.737Z,13.4
2019-04-06T16:42:43.902Z,13.5
2019-04-06T16:43:56.209Z,14.3
2019-04-06T16:45:08.297Z,14.2
2019-04-06T16:46:20.489Z,14
2019-04-06T16:48:44.897Z,12.5
2019-04-06T16:49:57.148Z,14
2019-04-06T16:51:10.174Z,13.3
2019-04-06T16:52:21.559Z,13.4
2019-04-06T16:53:33.658Z,13.9
2019-04-06T16:54:45.846Z,16.3
2019-04-06T16:55:58.053Z,15.3
2019-04-06T16:57:10.228Z,12.4
2019-04-06T16:58:22.583Z,14.3
2019-04-06T17:00:46.799Z,13.6
2019-04-06T17:01:59.095Z,13.4
2019-04-06T17:03:11.398Z,12.4
2019-04-06T17:04:23.386Z,14.7
2019-04-06T17:05:35.596Z,12
2019-04-06T17:06:47.994Z,14.2
2019-04-06T17:08:00.016Z,12.8
2019-04-06T17:09:12.248Z,12.9
2019-04-06T17:10:24.541Z,13.2
2019-04-06T17:12:48.763Z,13.4
2019-04-06T17:14:01.001Z,13.4
2019-04-06T17:15:13.333Z,13.4
2019-04-06T17:16:25.369Z,12.5
2019-04-06T17:17:37.527Z,15.3
2019-04-06T17:18:49.699Z,13.9
2019-04-06T17:20:01.890Z,16.1
2019-04-06T17:21:14.110Z,16.7
2019-04-06T17:22:26.342Z,12.6
2019-04-06T17:24:50.665Z,13.1
2019-04-06T17:26:02.866Z,15.2
2019-04-06T17:28:27.265Z,13.8
2019-04-06T17:29:39.436Z,14.5
2019-04-06T17:30:51.644Z,13.3
2019-04-06T17:32:03.823Z,14.4
2019-04-06T17:33:16.027Z,14.2
2019-04-06T17:35:40.477Z,14.5
2019-04-06T17:36:52.625Z,15.3
2019-04-06T17:38:04.795Z,15.2
2019-04-06T17:39:16.990Z,15.7
2019-04-06T17:40:29.276Z,14.8
2019-04-06T17:41:41.475Z,13.7
2019-04-06T17:42:53.568Z,16.4
2019-04-06T17:44:05.758Z,14.6
2019-04-06T17:45:17.975Z,15.5
2019-04-06T17:50:06.854Z,15.7
2019-04-06T17:52:31.126Z,14.9
2019-04-06T17:53:43.397Z,16.7
2019-04-06T17:54:55.537Z,19
2019-04-06T17:57:19.898Z,16.7
2019-04-06T17:58:32.121Z,16.4
2019-04-06T18:00:56.886Z,16.2
2019-04-06T18:02:08.744Z,15.7
2019-04-06T18:03:20.858Z,16.7
2019-04-06T18:04:33.052Z,17.8